Portada
METAR-TAF:

METAR-TAF

Aeroports :

Castres, França

latitud: 43-33-25N, longitud: 2-17-21E, altitud: 239 m

Observació

L'informe es va fer fa 25 minuts, a les 10:00 UTC
Vent 20 kt del Est/Sud-Est
Temperatura 12°C
Humitat 71%
Pressió 1020 hPa
Visibilitat 10 km o més
sense núvols per sota de 1500 mi sense presència de cumulonimbus.

METAR: LFCK 251000Z AUTO 12020KT CAVOK 12/07 Q1020 TEMPO 12017G27KT

Hora: 11:25 (10:25 UTC)

Pronòstic

L'informe es va fer fa 2 hores i 25 minuts, a les 08:00 UTC
Pronòstic vàlid del 25 a les 09 UTC al 25 a les 18 UTC
Vent 12 kt del Est/Sud-Est
Visibilitat 10 km o més
sense núvols per sota de 1500 mi sense presència de cumulonimbus.
Temporalment
l' 25 a les 09 UTC al 25 a les 18 UTC
Vent 17 kt del Est/Sud-Est amb ràfegues de 27 kt
Probabilitat 40% :
Temporalment
l' 25 a les 16 UTC al 25 a les 18 UTC
Cel ennuvolat a una alçada de 1100 ft

TAF: LFCK 250800Z 2509/2518 11012KT CAVOK TEMPO 2509/2518 12017G27KT PROB40 TEMPO 2516/2518 BKN011

Observacions i pronòstics meteorològics de més de 4000 aeroports (METAR i TAF).

Les estacions disponibles són els punts grocs i vermells al mapa.

Posi el ratolí al punt desitjat per veure el nom de l'estació.

Feu clic per veure les observacions i els pronòstics meteorològics.

Per canviar el mapa: feu clic els botons verds amb una creu de color negre per apropar; al botó verd amb un guió per allunyar la imatge; o en les fletxes verdes per a mapes adjacents.


METAR-TAF: